Time;durP1;ratioP1;P1;durP2;ratioP2;P2;SDS_P1;SDS_P2;PMS_P1;PMS_P2;Temp;Humidity;BMP_temperature;BMP_pressure;BME280_temperature;BME280_humidity;BME280_pressure;Samples;Min_cycle;Max_cycle;Signal;HPM_P1;HPM_P2
2023/01/24 00:00:51;;;;;;;;;;;8.10;79.40;;;;;;5032516;28;20007;-87
2023/01/24 00:03:16;;;;;;;;;;;8.00;79.00;;;;;;5032725;28;19943;-87
2023/01/24 00:05:43;;;;;;;;;;;8.00;79.10;;;;;;5032644;28;20338;-87
2023/01/24 00:08:11;;;;;;;;;;;8.10;79.40;;;;;;5032727;28;19939;-87
2023/01/24 00:10:36;;;;;;;;;;;8.00;79.10;;;;;;5032655;28;19944;-87
2023/01/24 00:13:02;;;;;;;;;;;8.10;79.10;;;;;;5032521;28;19937;-87
2023/01/24 00:15:27;;;;;;;;;;;8.10;79.20;;;;;;5032653;28;19937;-87
2023/01/24 00:17:53;;;;;;;;;;;8.10;79.10;;;;;;5036414;28;19953;-86
2023/01/24 00:20:19;;;;;;;;;;;8.00;79.40;;;;;;5036346;28;20302;-87
2023/01/24 00:22:44;;;;;;;;;;;8.10;79.20;;;;;;5036305;28;19945;-87
2023/01/24 00:25:10;;;;;;;;;;;8.10;78.80;;;;;;5036212;28;20318;-86
2023/01/24 00:27:35;;;;;;;;;;;8.30;78.40;;;;;;5035933;28;19946;-87
2023/01/24 00:30:02;;;;;;;;;;;8.30;78.50;;;;;;5036179;28;20308;-87
2023/01/24 00:32:28;;;;;;;;;;;8.30;78.70;;;;;;5036119;28;19938;-87
2023/01/24 00:34:53;;;;;;;;;;;8.20;78.60;;;;;;5036113;28;20352;-87
2023/01/24 00:37:19;;;;;;;;;;;8.20;78.50;;;;;;5036075;28;20297;-87
2023/01/24 00:39:44;;;;;;;;;;;8.20;78.50;;;;;;5035976;28;19936;-88
2023/01/24 00:42:10;;;;;;;;;;;8.20;78.50;;;;;;5035517;28;20285;-87
2023/01/24 00:44:35;;;;;;;;;;;8.10;79.00;;;;;;5018019;28;19945;-87
2023/01/24 00:47:01;;;;;;;;;;;8.00;79.40;;;;;;5035869;28;19966;-87
2023/01/24 00:49:26;;;;;;;;;;;7.90;80.00;;;;;;5035804;28;19941;-88
2023/01/24 00:51:52;;;;;;;;;;;7.80;80.40;;;;;;5035693;28;19940;-88
2023/01/24 00:54:17;;;;;;;;;;;7.70;80.70;;;;;;5035757;28;20307;-88
2023/01/24 00:56:43;;;;;;;;;;;7.70;80.90;;;;;;5035595;28;20520;-88
2023/01/24 00:59:08;;;;;;;;;;;7.70;80.80;;;;;;5035404;28;20328;-88
2023/01/24 01:01:34;;;;;;;;;;;7.70;80.80;;;;;;5035610;28;19939;-88
2023/01/24 01:03:59;;;;;;;;;;;7.70;80.90;;;;;;5035584;28;19939;-88
2023/01/24 01:06:25;;;;;;;;;;;7.60;81.00;;;;;;5035493;28;20388;-88
2023/01/24 01:08:51;;;;;;;;;;;7.60;80.80;;;;;;5035520;28;19939;-88
2023/01/24 01:11:17;;;;;;;;;;;7.60;80.70;;;;;;5035476;28;19948;-88
2023/01/24 01:13:42;;;;;;;;;;;7.60;80.80;;;;;;5058712;22;20069;-87
2023/01/24 01:16:12;;;;;;;;;;;7.60;80.70;;;;;;5075518;28;20036;-87
2023/01/24 01:18:39;;;;;;;;;;;7.70;80.40;;;;;;5069673;28;21572;-87
2023/01/24 01:21:05;;;;;;;;;;;7.60;80.40;;;;;;5054996;28;20287;-87
2023/01/24 01:23:31;;;;;;;;;;;7.50;80.50;;;;;;5037199;28;19948;-87
2023/01/24 01:26:00;;;;;;;;;;;7.50;80.70;;;;;;5055263;28;20467;-87
2023/01/24 01:28:26;;;;;;;;;;;7.40;81.60;;;;;;5038245;28;19981;-87
2023/01/24 01:30:52;;;;;;;;;;;7.20;82.00;;;;;;5075021;28;19976;-87
2023/01/24 01:33:18;;;;;;;;;;;7.10;82.10;;;;;;5074951;28;19939;-87
2023/01/24 01:35:43;;;;;;;;;;;7.00;82.30;;;;;;5074897;28;19938;-87
2023/01/24 01:38:09;;;;;;;;;;;6.90;82.40;;;;;;5074820;28;20429;-87
2023/01/24 01:40:35;;;;;;;;;;;6.90;82.60;;;;;;5072718;28;20001;-87
2023/01/24 01:43:01;;;;;;;;;;;6.90;82.80;;;;;;5056780;28;20001;-87
2023/01/24 01:45:31;;;;;;;;;;;6.90;82.80;;;;;;5075240;28;20378;-87
2023/01/24 01:47:57;;;;;;;;;;;6.70;83.50;;;;;;5058436;28;19947;-87
2023/01/24 01:50:22;;;;;;;;;;;6.70;83.50;;;;;;5054952;28;19939;-87
2023/01/24 01:52:48;;;;;;;;;;;6.70;83.60;;;;;;5054522;28;20576;-87
2023/01/24 01:55:26;;;;;;;;;;;6.70;83.60;;;;;;5054454;28;19941;-87
2023/01/24 01:57:52;;;;;;;;;;;6.70;83.90;;;;;;5054551;28;19946;-87
2023/01/24 02:00:20;;;;;;;;;;;6.70;83.80;;;;;;5054408;28;19953;-86
2023/01/24 02:02:52;;;;;;;;;;;6.60;84.10;;;;;;5066435;28;20126;-86
2023/01/24 02:05:20;;;;;;;;;;;6.70;84.00;;;;;;5074244;28;19979;-87
2023/01/24 02:07:49;;;;;;;;;;;6.80;84.00;;;;;;5041764;28;20619;-87
2023/01/24 02:10:16;;;;;;;;;;;6.80;83.60;;;;;;5054231;28;19946;-87
2023/01/24 02:12:43;;;;;;;;;;;6.90;83.50;;;;;;5054192;28;19939;-86
2023/01/24 02:17:55;;;;;;;;;;;6.80;83.60;;;;;;5069380;28;19953;-86
2023/01/24 02:20:34;;;;;;;;;;;6.90;83.90;;;;;;5073958;28;19941;-87
2023/01/24 02:23:05;;;;;;;;;;;6.80;84.20;;;;;;5073943;28;19936;-86
2023/01/24 02:25:31;;;;;;;;;;;6.80;83.70;;;;;;5073827;28;19964;-86
2023/01/24 02:27:58;;;;;;;;;;;6.90;83.10;;;;;;5068985;28;19951;-86
2023/01/24 02:30:24;;;;;;;;;;;6.90;83.00;;;;;;5073550;28;19955;-86
2023/01/24 02:32:49;;;;;;;;;;;6.90;83.00;;;;;;5073756;28;19971;-87
2023/01/24 02:35:29;;;;;;;;;;;7.00;82.50;;;;;;5073959;28;19942;-86
2023/01/24 02:37:55;;;;;;;;;;;7.10;82.20;;;;;;5058240;28;19992;-86
2023/01/24 02:40:22;;;;;;;;;;;7.00;82.50;;;;;;5053123;28;19950;-86
2023/01/24 02:42:47;;;;;;;;;;;6.90;82.70;;;;;;5053636;28;19934;-87
2023/01/24 02:45:16;;;;;;;;;;;6.90;82.80;;;;;;5053515;28;19968;-86
2023/01/24 02:47:44;;;;;;;;;;;6.80;83.00;;;;;;5057729;28;20372;-86
2023/01/24 02:50:10;;;;;;;;;;;6.60;83.60;;;;;;5053439;28;19942;-87
2023/01/24 02:55:20;;;;;;;;;;;6.40;84.50;;;;;;5053366;28;19944;-86
2023/01/24 03:00:29;;;;;;;;;;;6.40;85.10;;;;;;5073367;28;19991;-86
2023/01/24 03:02:54;;;;;;;;;;;6.40;85.00;;;;;;5073631;28;20351;-86
2023/01/24 03:05:20;;;;;;;;;;;6.30;85.20;;;;;;5073168;28;20434;-86
2023/01/24 03:07:46;;;;;;;;;;;6.30;85.40;;;;;;5059974;28;19998;-86
2023/01/24 03:10:12;;;;;;;;;;;6.40;84.90;;;;;;5053261;28;20216;-86
2023/01/24 03:34:45;;;;;;;;;;;6.90;82.20;;;;;;5053288;28;19944;-86
2023/01/24 03:37:11;;;;;;;;;;;6.90;82.40;;;;;;5060619;28;19945;-87
2023/01/24 03:39:58;;;;;;;;;;;6.90;82.40;;;;;;5072922;28;20421;-87
2023/01/24 03:42:24;;;;;;;;;;;6.70;83.00;;;;;;5054902;28;20349;-87
2023/01/24 03:44:50;;;;;;;;;;;6.50;83.80;;;;;;5072852;28;19978;-87
2023/01/24 03:47:15;;;;;;;;;;;6.30;84.40;;;;;;5070855;28;19974;-86
2023/01/24 03:52:28;;;;;;;;;;;6.10;84.60;;;;;;5076812;28;19958;-87
2023/01/24 03:54:54;;;;;;;;;;;6.10;84.90;;;;;;5076810;28;19944;-87
2023/01/24 03:57:19;;;;;;;;;;;6.10;85.30;;;;;;5067939;28;19946;-87
2023/01/24 03:59:45;;;;;;;;;;;6.20;84.80;;;;;;5056728;28;19939;-87
2023/01/24 04:02:10;;;;;;;;;;;6.20;83.80;;;;;;5057486;28;19971;-87
2023/01/24 04:07:20;;;;;;;;;;;6.20;83.70;;;;;;5069884;28;19995;-87
2023/01/24 04:09:45;;;;;;;;;;;6.50;83.60;;;;;;5065672;28;19948;-87
2023/01/24 04:12:11;;;;;;;;;;;6.60;82.90;;;;;;5072644;28;19941;-87
2023/01/24 04:14:36;;;;;;;;;;;6.80;81.80;;;;;;5075842;28;20012;-86
2023/01/24 04:17:02;;;;;;;;;;;6.60;81.30;;;;;;5075676;28;19940;-87
2023/01/24 04:19:28;;;;;;;;;;;6.30;81.30;;;;;;5076285;28;20023;-87
2023/01/24 04:21:53;;;;;;;;;;;6.00;81.30;;;;;;5076219;28;19949;-87
2023/01/24 04:24:19;;;;;;;;;;;5.80;82.60;;;;;;5076233;28;19943;-87
2023/01/24 04:26:44;;;;;;;;;;;5.60;83.30;;;;;;5074425;28;20071;-87
2023/01/24 04:29:10;;;;;;;;;;;5.40;83.80;;;;;;5075512;28;19995;-87
2023/01/24 04:31:35;;;;;;;;;;;5.40;85.10;;;;;;5076113;28;19959;-86
2023/01/24 04:34:01;;;;;;;;;;;5.40;86.60;;;;;;5076051;28;20029;-86
2023/01/24 04:36:26;;;;;;;;;;;5.30;86.80;;;;;;5075588;28;19948;-87
2023/01/24 04:38:51;;;;;;;;;;;5.30;86.70;;;;;;5055973;28;19936;-87
2023/01/24 04:41:17;;;;;;;;;;;5.20;86.80;;;;;;5038028;28;19938;-87
2023/01/24 04:43:42;;;;;;;;;;;5.20;86.70;;;;;;5055878;28;19936;-87
2023/01/24 04:46:08;;;;;;;;;;;5.20;86.90;;;;;;5055775;28;19965;-87
2023/01/24 04:48:34;;;;;;;;;;;5.40;87.00;;;;;;5072839;28;19998;-87
2023/01/24 04:50:59;;;;;;;;;;;5.70;86.20;;;;;;5075820;28;20311;-87
2023/01/24 04:53:25;;;;;;;;;;;5.90;85.40;;;;;;5075663;28;19984;-87
2023/01/24 04:55:51;;;;;;;;;;;5.90;85.00;;;;;;5075524;28;20363;-87
2023/01/24 04:58:16;;;;;;;;;;;5.90;84.30;;;;;;5074046;28;19949;-87
2023/01/24 05:00:42;;;;;;;;;;;6.00;84.20;;;;;;5075185;28;20358;-87
2023/01/24 05:03:07;;;;;;;;;;;6.10;83.60;;;;;;5074643;28;19944;-87
2023/01/24 05:05:33;;;;;;;;;;;6.10;83.30;;;;;;5075399;28;19968;-87
2023/01/24 05:07:58;;;;;;;;;;;6.20;82.60;;;;;;5062781;28;20145;-86
2023/01/24 05:10:24;;;;;;;;;;;6.00;82.30;;;;;;5037549;28;19994;-87
2023/01/24 05:12:49;;;;;;;;;;;5.90;82.30;;;;;;5052898;28;20046;-87
2023/01/24 05:15:15;;;;;;;;;;;5.60;82.70;;;;;;5075193;28;20057;-87
2023/01/24 05:17:44;;;;;;;;;;;5.40;83.60;;;;;;5065125;28;20038;-86
2023/01/24 05:20:10;;;;;;;;;;;5.40;84.40;;;;;;5032406;28;20003;-86
2023/01/24 05:22:35;;;;;;;;;;;5.20;84.70;;;;;;5055046;28;19978;-87
2023/01/24 05:25:01;;;;;;;;;;;5.10;84.90;;;;;;5055533;28;19949;-87
2023/01/24 05:27:26;;;;;;;;;;;4.90;84.30;;;;;;5067972;28;19978;-87
2023/01/24 05:29:52;;;;;;;;;;;4.80;84.70;;;;;;5074269;28;19949;-87
2023/01/24 05:32:17;;;;;;;;;;;4.80;84.90;;;;;;5070138;28;20029;-87
2023/01/24 05:34:43;;;;;;;;;;;5.00;84.70;;;;;;5069944;28;19941;-86
2023/01/24 05:37:08;;;;;;;;;;;5.00;84.60;;;;;;5063297;28;19942;-86
2023/01/24 05:39:34;;;;;;;;;;;4.90;84.80;;;;;;5049964;28;19947;-86
2023/01/24 05:41:59;;;;;;;;;;;4.80;85.60;;;;;;5065855;28;20212;-86
2023/01/24 05:44:25;;;;;;;;;;;4.90;86.00;;;;;;5057217;28;20366;-86
2023/01/24 05:46:50;;;;;;;;;;;4.90;86.20;;;;;;5072388;28;20695;-86
2023/01/24 05:49:16;;;;;;;;;;;5.00;85.80;;;;;;5054636;28;19942;-86
2023/01/24 05:51:41;;;;;;;;;;;4.90;85.50;;;;;;5054506;28;19939;-86
2023/01/24 05:54:07;;;;;;;;;;;4.80;85.60;;;;;;5054436;28;19953;-87
2023/01/24 05:56:33;;;;;;;;;;;4.60;85.60;;;;;;5054296;28;19946;-86
2023/01/24 05:59:00;;;;;;;;;;;4.40;85.20;;;;;;5054941;28;19946;-86
2023/01/24 06:01:26;;;;;;;;;;;4.10;85.70;;;;;;5056097;28;20164;-86
2023/01/24 06:03:52;;;;;;;;;;;4.00;86.80;;;;;;5066236;28;19982;-87
2023/01/24 06:06:19;;;;;;;;;;;3.90;87.20;;;;;;5070475;28;19957;-86
2023/01/24 06:08:44;;;;;;;;;;;3.90;88.10;;;;;;5071322;28;19946;-87
2023/01/24 06:11:28;;;;;;;;;;;3.90;88.40;;;;;;5064931;28;19939;-86
2023/01/24 06:13:54;;;;;;;;;;;3.80;88.70;;;;;;5062820;28;20014;-87
2023/01/24 06:16:21;;;;;;;;;;;3.90;89.20;;;;;;5062583;28;19979;-86
2023/01/24 06:18:47;;;;;;;;;;;3.80;90.00;;;;;;5060688;28;19985;-86
2023/01/24 06:21:13;;;;;;;;;;;4.00;90.20;;;;;;5066256;28;20006;-86
2023/01/24 06:23:38;;;;;;;;;;;4.20;90.10;;;;;;5067964;28;20313;-87
2023/01/24 06:26:04;;;;;;;;;;;4.30;89.60;;;;;;5060640;28;20011;-86
2023/01/24 06:28:30;;;;;;;;;;;4.40;89.20;;;;;;5062154;28;19944;-86
2023/01/24 06:31:18;;;;;;;;;;;4.60;88.70;;;;;;5055813;28;20391;-87
2023/01/24 06:33:47;;;;;;;;;;;4.70;88.20;;;;;;5053378;28;20566;-86
2023/01/24 06:36:17;;;;;;;;;;;4.80;86.60;;;;;;5059512;28;20419;-86
2023/01/24 06:38:42;;;;;;;;;;;4.70;85.90;;;;;;5056903;28;19944;-88
2023/01/24 06:41:13;;;;;;;;;;;4.50;86.20;;;;;;5062746;28;19947;-87
2023/01/24 06:43:39;;;;;;;;;;;4.30;86.90;;;;;;5057766;28;19994;-87
2023/01/24 06:46:04;;;;;;;;;;;4.20;87.50;;;;;;5056392;28;20364;-87
2023/01/24 06:48:30;;;;;;;;;;;4.20;87.90;;;;;;5058142;28;20436;-87
2023/01/24 06:50:55;;;;;;;;;;;4.30;87.90;;;;;;5070776;28;19943;-87
2023/01/24 06:53:21;;;;;;;;;;;4.20;88.00;;;;;;5067880;28;19975;-87
2023/01/24 06:55:47;;;;;;;;;;;4.40;88.00;;;;;;5066427;28;20306;-87
2023/01/24 06:58:13;;;;;;;;;;;4.40;87.70;;;;;;5061780;28;20395;-87
2023/01/24 07:00:38;;;;;;;;;;;4.50;87.50;;;;;;5062924;28;19948;-87
2023/01/24 07:03:07;;;;;;;;;;;4.60;86.90;;;;;;5059946;28;19965;-88
2023/01/24 07:05:33;;;;;;;;;;;4.50;86.40;;;;;;5063642;28;19956;-87
2023/01/24 07:07:59;;;;;;;;;;;4.50;87.10;;;;;;5057356;28;20464;-87
2023/01/24 07:10:25;;;;;;;;;;;4.50;87.20;;;;;;5062274;28;19944;-87
2023/01/24 07:12:51;;;;;;;;;;;4.50;87.20;;;;;;5056222;28;19956;-86
2023/01/24 07:15:16;;;;;;;;;;;4.70;87.10;;;;;;5053822;28;19978;-87
2023/01/24 07:17:42;;;;;;;;;;;4.70;86.80;;;;;;5056477;28;20322;-88
2023/01/24 07:20:09;;;;;;;;;;;4.70;86.70;;;;;;5047940;28;20041;-88
2023/01/24 07:22:38;;;;;;;;;;;4.70;86.70;;;;;;5054168;28;19950;-88
2023/01/24 07:25:05;;;;;;;;;;;4.80;86.70;;;;;;5054626;28;19967;-87
2023/01/24 07:27:30;;;;;;;;;;;4.90;86.50;;;;;;5059457;28;19941;-88
2023/01/24 07:29:56;;;;;;;;;;;4.90;86.50;;;;;;5060815;28;19956;-88
2023/01/24 07:32:21;;;;;;;;;;;4.90;86.40;;;;;;5060879;28;19942;-88
2023/01/24 07:34:47;;;;;;;;;;;5.10;86.40;;;;;;5065652;28;20034;-87
2023/01/24 07:37:12;;;;;;;;;;;5.40;85.80;;;;;;5064084;28;19986;-88
2023/01/24 07:39:38;;;;;;;;;;;5.60;84.90;;;;;;5064600;28;19960;-88
2023/01/24 07:42:03;;;;;;;;;;;5.60;84.20;;;;;;5056779;28;19943;-87
2023/01/24 07:44:29;;;;;;;;;;;5.50;85.00;;;;;;5062048;28;19999;-87
2023/01/24 07:46:54;;;;;;;;;;;5.50;84.80;;;;;;5063633;28;19970;-87
2023/01/24 07:49:20;;;;;;;;;;;5.40;85.20;;;;;;5063734;28;20028;-87
2023/01/24 07:51:48;;;;;;;;;;;5.30;85.70;;;;;;5062438;28;19991;-87
2023/01/24 07:54:14;;;;;;;;;;;5.30;86.20;;;;;;5057689;28;19947;-87
2023/01/24 07:56:39;;;;;;;;;;;5.20;86.40;;;;;;5060007;28;19939;-88
2023/01/24 07:59:05;;;;;;;;;;;5.20;86.40;;;;;;5059608;28;19953;-87
2023/01/24 08:01:30;;;;;;;;;;;5.20;86.60;;;;;;5061338;28;19998;-87
2023/01/24 08:03:57;;;;;;;;;;;5.30;86.90;;;;;;5060631;28;19953;-87
2023/01/24 08:06:22;;;;;;;;;;;5.50;87.00;;;;;;5061016;28;19974;-87
2023/01/24 08:08:48;;;;;;;;;;;6.00;86.20;;;;;;5065931;28;19941;-87
2023/01/24 08:11:17;;;;;;;;;;;6.30;84.90;;;;;;5060487;28;19942;-87
2023/01/24 08:13:43;;;;;;;;;;;6.50;83.90;;;;;;5060167;28;20423;-88
2023/01/24 08:16:08;;;;;;;;;;;6.60;83.10;;;;;;5058902;28;19943;-87
2023/01/24 08:18:35;;;;;;;;;;;6.60;82.50;;;;;;5054820;28;19956;-87
2023/01/24 08:21:01;;;;;;;;;;;6.60;82.90;;;;;;5055366;28;20005;-87
2023/01/24 08:23:27;;;;;;;;;;;6.70;82.50;;;;;;5063203;28;19952;-87
2023/01/24 08:25:52;;;;;;;;;;;6.80;82.40;;;;;;5065451;28;19969;-87
2023/01/24 08:28:18;;;;;;;;;;;6.80;82.70;;;;;;5064424;28;19962;-87
2023/01/24 08:30:43;;;;;;;;;;;6.70;82.90;;;;;;5064631;28;19994;-88
2023/01/24 08:33:13;;;;;;;;;;;6.70;83.40;;;;;;5057186;28;20027;-88
2023/01/24 08:35:39;;;;;;;;;;;6.90;84.00;;;;;;5068082;28;19934;-88
2023/01/24 08:38:05;;;;;;;;;;;7.40;82.20;;;;;;5068364;28;19951;-87
2023/01/24 08:40:30;;;;;;;;;;;7.50;81.60;;;;;;5063012;28;19942;-88
2023/01/24 08:42:58;;;;;;;;;;;7.70;81.30;;;;;;5059191;28;20580;-87
2023/01/24 08:45:24;;;;;;;;;;;7.70;81.00;;;;;;5070132;28;19965;-88
2023/01/24 08:47:53;;;;;;;;;;;7.80;80.60;;;;;;5067900;28;19963;-87
2023/01/24 08:50:19;;;;;;;;;;;7.90;80.50;;;;;;5065018;28;20415;-87
2023/01/24 08:52:45;;;;;;;;;;;8.00;80.40;;;;;;5061397;28;20432;-87
2023/01/24 08:55:11;;;;;;;;;;;8.00;79.90;;;;;;5064717;28;20025;-88
2023/01/24 08:57:36;;;;;;;;;;;8.00;79.40;;;;;;5062576;28;19965;-87
2023/01/24 09:00:02;;;;;;;;;;;8.10;78.60;;;;;;5057550;28;20044;-88
2023/01/24 09:02:29;;;;;;;;;;;8.20;78.10;;;;;;5060097;28;20028;-88
2023/01/24 09:04:54;;;;;;;;;;;8.20;77.90;;;;;;5058393;28;19950;-88
2023/01/24 09:07:20;;;;;;;;;;;8.40;77.70;;;;;;5056722;28;19950;-88
2023/01/24 09:09:45;;;;;;;;;;;8.70;77.50;;;;;;5061979;28;19950;-88
2023/01/24 09:12:11;;;;;;;;;;;8.90;77.10;;;;;;5055382;28;19982;-88
2023/01/24 09:14:36;;;;;;;;;;;9.00;76.80;;;;;;5067392;22;19978;-88
2023/01/24 09:17:02;;;;;;;;;;;9.20;76.00;;;;;;5060795;28;20035;-88
2023/01/24 09:19:27;;;;;;;;;;;9.40;75.70;;;;;;5062176;28;20002;-88
2023/01/24 09:21:56;;;;;;;;;;;9.60;74.70;;;;;;5062277;28;20054;-88
2023/01/24 09:24:22;;;;;;;;;;;9.70;74.00;;;;;;5064896;28;19942;-87
2023/01/24 09:26:48;;;;;;;;;;;9.80;72.40;;;;;;5058749;28;20447;-87
2023/01/24 09:29:13;;;;;;;;;;;9.80;71.50;;;;;;5062328;28;19951;-87
2023/01/24 09:31:39;;;;;;;;;;;9.90;71.50;;;;;;5057086;28;19950;-87
2023/01/24 09:34:05;;;;;;;;;;;9.80;72.10;;;;;;5038157;28;19940;-87
2023/01/24 09:36:30;;;;;;;;;;;9.70;71.80;;;;;;5060065;28;20071;-88
2023/01/24 09:38:56;;;;;;;;;;;9.70;72.40;;;;;;5059399;28;19951;-88
2023/01/24 09:41:22;;;;;;;;;;;9.80;72.40;;;;;;5057539;28;19942;-88
2023/01/24 09:43:47;;;;;;;;;;;9.90;72.30;;;;;;5066514;28;19947;-88
2023/01/24 09:46:20;;;;;;;;;;;9.90;71.60;;;;;;5054022;28;19977;-88
2023/01/24 09:48:52;;;;;;;;;;;10.00;71.20;;;;;;5041852;28;20317;-88
2023/01/24 09:51:20;;;;;;;;;;;10.20;71.00;;;;;;5058671;28;19943;-88
2023/01/24 09:53:49;;;;;;;;;;;10.30;71.30;;;;;;5048989;28;20415;-88
2023/01/24 09:56:26;;;;;;;;;;;10.40;70.60;;;;;;5043456;28;20440;-88
2023/01/24 09:59:11;;;;;;;;;;;10.60;69.90;;;;;;5041986;28;20113;-88
2023/01/24 10:01:38;;;;;;;;;;;10.80;69.60;;;;;;5039610;28;19952;-88
2023/01/24 10:04:05;;;;;;;;;;;10.80;69.10;;;;;;5044990;28;19945;-87
2023/01/24 10:06:32;;;;;;;;;;;10.90;68.70;;;;;;5043749;28;19944;-87
2023/01/24 10:09:12;;;;;;;;;;;10.80;68.10;;;;;;5046558;28;19950;-87
2023/01/24 10:11:44;;;;;;;;;;;10.80;68.80;;;;;;5027417;28;20402;-88
2023/01/24 10:14:27;;;;;;;;;;;10.80;69.00;;;;;;5044266;28;20399;-88
2023/01/24 10:17:07;;;;;;;;;;;10.80;68.90;;;;;;5045078;28;20390;-88
2023/01/24 10:19:36;;;;;;;;;;;11.00;68.10;;;;;;5048428;28;20038;-88
2023/01/24 10:22:20;;;;;;;;;;;11.40;66.70;;;;;;5043362;28;19958;-88
2023/01/24 10:24:52;;;;;;;;;;;11.60;65.50;;;;;;5039218;28;19948;-88
2023/01/24 10:27:43;;;;;;;;;;;11.70;66.40;;;;;;5046881;28;20059;-88
2023/01/24 10:30:18;;;;;;;;;;;11.80;65.80;;;;;;5039597;28;20463;-88
2023/01/24 10:32:46;;;;;;;;;;;11.70;65.00;;;;;;5043956;28;19953;-87
2023/01/24 10:35:50;;;;;;;;;;;11.70;65.00;;;;;;5039514;28;19940;-88
2023/01/24 10:38:17;;;;;;;;;;;11.70;64.80;;;;;;4947632;28;19953;-87
2023/01/24 10:40:50;;;;;;;;;;;11.60;65.60;;;;;;4944511;28;20466;-88
2023/01/24 10:43:16;;;;;;;;;;;11.60;66.80;;;;;;4995210;28;19952;-88
2023/01/24 10:46:11;;;;;;;;;;;11.60;66.60;;;;;;5041619;28;19956;-88
2023/01/24 10:48:44;;;;;;;;;;;11.70;66.10;;;;;;4958183;28;20402;-88
2023/01/24 10:51:15;;;;;;;;;;;11.80;65.70;;;;;;5042621;28;19946;-88
2023/01/24 10:53:40;;;;;;;;;;;11.90;65.40;;;;;;5046967;28;19962;-88
2023/01/24 10:56:06;;;;;;;;;;;11.90;65.70;;;;;;5042525;28;20344;-88
2023/01/24 10:58:54;;;;;;;;;;;11.90;65.50;;;;;;5041705;28;20317;-88
2023/01/24 11:01:21;;;;;;;;;;;12.00;64.50;;;;;;5039194;28;20049;-88
2023/01/24 11:03:48;;;;;;;;;;;12.10;64.90;;;;;;5046282;28;19992;-88
2023/01/24 11:06:23;;;;;;;;;;;12.10;63.20;;;;;;5045959;28;19949;-88
2023/01/24 11:08:53;;;;;;;;;;;12.20;65.20;;;;;;5046292;28;20393;-88
2023/01/24 11:11:38;;;;;;;;;;;12.30;64.40;;;;;;5045836;28;19943;-88
2023/01/24 11:14:04;;;;;;;;;;;12.40;63.30;;;;;;5038217;28;20064;-88
2023/01/24 11:16:39;;;;;;;;;;;12.40;64.40;;;;;;5040573;28;20058;-88
2023/01/24 11:19:05;;;;;;;;;;;12.40;64.90;;;;;;5033327;28;19940;-87
2023/01/24 11:21:31;;;;;;;;;;;12.60;64.50;;;;;;5033065;28;20295;-88
2023/01/24 11:24:00;;;;;;;;;;;12.70;63.30;;;;;;5033582;28;19945;-88
2023/01/24 11:26:27;;;;;;;;;;;12.80;63.50;;;;;;5033074;28;20418;-88
2023/01/24 11:28:57;;;;;;;;;;;12.90;62.00;;;;;;5033127;28;19970;-88
2023/01/24 11:31:25;;;;;;;;;;;13.00;62.40;;;;;;5033070;28;19939;-88
2023/01/24 11:33:58;;;;;;;;;;;13.10;60.50;;;;;;5043022;28;19980;-88
2023/01/24 11:36:50;;;;;;;;;;;13.30;59.10;;;;;;5053028;28;19988;-88
2023/01/24 11:39:36;;;;;;;;;;;13.60;58.90;;;;;;5052980;28;19940;-88
2023/01/24 11:42:06;;;;;;;;;;;13.90;58.50;;;;;;5038902;28;19966;-88
2023/01/24 11:44:47;;;;;;;;;;;14.00;59.30;;;;;;5050830;28;19998;-87
2023/01/24 11:47:17;;;;;;;;;;;13.90;59.80;;;;;;5052817;28;19971;-88
2023/01/24 11:50:02;;;;;;;;;;;13.90;58.20;;;;;;5034993;28;20300;-88
2023/01/24 11:52:40;;;;;;;;;;;13.80;58.50;;;;;;5052794;28;19958;-88
2023/01/24 11:55:38;;;;;;;;;;;14.00;57.70;;;;;;5032880;28;19948;-88
2023/01/24 11:58:23;;;;;;;;;;;14.20;56.00;;;;;;4988734;28;19944;-88
2023/01/24 12:00:52;;;;;;;;;;;14.40;55.60;;;;;;5030885;28;20386;-89
2023/01/24 12:03:23;;;;;;;;;;;14.80;55.90;;;;;;5037693;28;19992;-88
2023/01/24 12:05:55;;;;;;;;;;;14.80;55.10;;;;;;5052675;28;19975;-88
2023/01/24 12:08:23;;;;;;;;;;;14.50;54.60;;;;;;5052720;28;20332;-87
2023/01/24 12:11:01;;;;;;;;;;;14.30;54.90;;;;;;5053156;28;20030;-88
2023/01/24 12:13:26;;;;;;;;;;;14.30;56.80;;;;;;5045490;28;19968;-88
2023/01/24 12:15:54;;;;;;;;;;;14.10;56.00;;;;;;5055864;28;20301;-88
2023/01/24 12:18:38;;;;;;;;;;;14.30;55.50;;;;;;5054580;28;19993;-88
2023/01/24 12:21:08;;;;;;;;;;;14.60;55.20;;;;;;5045562;28;19943;-88
2023/01/24 12:23:40;;;;;;;;;;;14.50;54.60;;;;;;5043890;28;20409;-88
2023/01/24 12:26:09;;;;;;;;;;;14.80;53.60;;;;;;5056112;28;19966;-88
2023/01/24 12:28:40;;;;;;;;;;;14.90;53.20;;;;;;5054327;28;20034;-88
2023/01/24 12:31:07;;;;;;;;;;;15.30;51.50;;;;;;5043749;28;19947;-88
2023/01/24 12:33:41;;;;;;;;;;;15.20;50.20;;;;;;5025742;28;20030;-88
2023/01/24 12:36:29;;;;;;;;;;;15.00;50.70;;;;;;5040567;28;19954;-88
2023/01/24 12:38:59;;;;;;;;;;;14.70;51.70;;;;;;5047228;28;19960;-88
2023/01/24 12:41:25;;;;;;;;;;;14.90;51.10;;;;;;5050059;28;19937;-88
2023/01/24 12:44:09;;;;;;;;;;;14.90;51.60;;;;;;5023842;28;19961;-88
2023/01/24 12:46:39;;;;;;;;;;;15.10;51.20;;;;;;5044804;28;19983;-88
2023/01/24 12:49:24;;;;;;;;;;;15.40;50.60;;;;;;5047636;28;20410;-88
2023/01/24 12:52:02;;;;;;;;;;;15.60;50.30;;;;;;5048731;28;19950;-88
2023/01/24 12:54:34;;;;;;;;;;;15.70;48.90;;;;;;5053470;28;19944;-88
2023/01/24 12:57:04;;;;;;;;;;;16.00;47.70;;;;;;5050374;28;19958;-88
2023/01/24 12:59:32;;;;;;;;;;;16.70;46.80;;;;;;5053184;28;19941;-88
2023/01/24 13:02:12;;;;;;;;;;;17.40;46.90;;;;;;5043985;28;20405;-88
2023/01/24 13:04:41;;;;;;;;;;;17.40;45.20;;;;;;5048414;28;19944;-88
2023/01/24 13:07:12;;;;;;;;;;;17.30;46.40;;;;;;5051958;28;20409;-89
2023/01/24 13:09:38;;;;;;;;;;;17.00;46.50;;;;;;5044322;28;19958;-89
2023/01/24 13:12:07;;;;;;;;;;;17.20;46.60;;;;;;5030279;28;19944;-88
2023/01/24 13:14:42;;;;;;;;;;;16.40;47.30;;;;;;5022152;28;20062;-88
2023/01/24 13:17:11;;;;;;;;;;;15.80;48.10;;;;;;5024350;28;20399;-88
2023/01/24 13:19:55;;;;;;;;;;;15.30;49.80;;;;;;5026812;28;19958;-89
2023/01/24 13:22:20;;;;;;;;;;;15.40;49.80;;;;;;5028024;28;19953;-88
2023/01/24 13:25:05;;;;;;;;;;;15.40;51.00;;;;;;5023393;28;19951;-88
2023/01/24 13:27:39;;;;;;;;;;;15.10;51.50;;;;;;5031278;28;19953;-88
2023/01/24 13:30:12;;;;;;;;;;;14.60;52.10;;;;;;5021799;28;19951;-88
2023/01/24 13:32:39;;;;;;;;;;;14.30;53.60;;;;;;5030291;28;20451;-88
2023/01/24 13:35:31;;;;;;;;;;;14.20;53.80;;;;;;5029901;28;20003;-88
2023/01/24 13:38:06;;;;;;;;;;;14.10;53.60;;;;;;5021974;28;19950;-88
2023/01/24 13:40:34;;;;;;;;;;;14.10;53.50;;;;;;5026551;28;19994;-88
2023/01/24 13:43:20;;;;;;;;;;;13.90;53.80;;;;;;5025418;28;19947;-88
2023/01/24 13:45:46;;;;;;;;;;;13.90;54.60;;;;;;5029151;28;19954;-88
2023/01/24 13:48:48;;;;;;;;;;;13.90;54.60;;;;;;5031671;28;20322;-88
2023/01/24 13:51:16;;;;;;;;;;;13.90;54.40;;;;;;4985822;28;19945;-89
2023/01/24 13:54:00;;;;;;;;;;;13.90;55.20;;;;;;5017091;28;20027;-88
2023/01/24 13:56:26;;;;;;;;;;;14.00;55.70;;;;;;5026515;28;19969;-89
2023/01/24 13:58:53;;;;;;;;;;;14.10;55.50;;;;;;5034051;28;19946;-89
2023/01/24 14:01:19;;;;;;;;;;;14.20;54.50;;;;;;5029966;28;19987;-88
2023/01/24 14:03:55;;;;;;;;;;;14.10;55.00;;;;;;5027170;28;19943;-88
2023/01/24 14:06:23;;;;;;;;;;;13.90;55.10;;;;;;5026972;28;19985;-88
2023/01/24 14:09:12;;;;;;;;;;;13.90;54.70;;;;;;5040800;28;19956;-88
2023/01/24 14:11:39;;;;;;;;;;;13.90;54.50;;;;;;5012826;28;19945;-89
2023/01/24 14:14:34;;;;;;;;;;;13.90;56.00;;;;;;5027237;28;20005;-88
2023/01/24 14:17:01;;;;;;;;;;;13.90;55.80;;;;;;5033297;28;20064;-88
2023/01/24 14:19:32;;;;;;;;;;;14.30;56.00;;;;;;5045761;28;19958;-89
2023/01/24 14:22:04;;;;;;;;;;;14.30;55.40;;;;;;5049866;28;19945;-89
2023/01/24 14:24:32;;;;;;;;;;;14.50;55.20;;;;;;5046628;28;19945;-89
2023/01/24 14:26:59;;;;;;;;;;;14.30;54.80;;;;;;5046647;28;20059;-89
2023/01/24 14:29:36;;;;;;;;;;;14.40;54.90;;;;;;5048003;28;19951;-89
2023/01/24 14:32:05;;;;;;;;;;;14.70;54.10;;;;;;5042959;28;20886;-89
2023/01/24 14:34:35;;;;;;;;;;;14.60;54.00;;;;;;5044465;28;19959;-88
2023/01/24 14:37:07;;;;;;;;;;;14.20;54.50;;;;;;5048033;28;19953;-88
2023/01/24 14:39:33;;;;;;;;;;;14.00;54.30;;;;;;5050097;28;19943;-88
2023/01/24 14:42:06;;;;;;;;;;;13.70;56.30;;;;;;5045701;28;19948;-88
2023/01/24 14:44:39;;;;;;;;;;;13.40;56.90;;;;;;5045400;28;19954;-88
2023/01/24 14:47:05;;;;;;;;;;;13.10;57.90;;;;;;5044570;28;19948;-88
2023/01/24 14:49:35;;;;;;;;;;;12.70;59.10;;;;;;5047042;28;19947;-88
2023/01/24 14:52:01;;;;;;;;;;;12.30;60.70;;;;;;5018852;28;19943;-88
2023/01/24 14:54:27;;;;;;;;;;;12.10;61.80;;;;;;5039585;28;20298;-88
2023/01/24 14:56:52;;;;;;;;;;;12.00;62.90;;;;;;5045380;28;19998;-88
2023/01/24 14:59:19;;;;;;;;;;;12.00;61.80;;;;;;5046582;28;19947;-88
2023/01/24 15:01:52;;;;;;;;;;;12.10;62.60;;;;;;5047000;28;20399;-89
2023/01/24 15:04:22;;;;;;;;;;;12.20;61.90;;;;;;5023504;28;19952;-88
2023/01/24 15:07:02;;;;;;;;;;;12.20;61.80;;;;;;5048110;28;19966;-88
2023/01/24 15:09:27;;;;;;;;;;;12.10;62.40;;;;;;5026227;28;19966;-88
2023/01/24 15:11:53;;;;;;;;;;;12.10;62.30;;;;;;5044535;28;19951;-88